Terminal Aerodrome Forecast
Issued by NWS Wilmington, NC

Home | Current Version | Previous Version | Text Only | Print | Product List | Glossary On
Versions: 1 2 3 4 5 6 7 8 9 10 11 12 13 14
000
FTUS42 KILM 232320
TAFFLO
TAF
KFLO 232320Z 2400/2424 19006KT P6SM BKN040
     FM240200 20005KT P6SM FEW060
     FM241500 22005KT P6SM FEW040=

USA.gov is the U.S. government's official web portal to all federal, state and local government web resources and services.